createdAt,value
2018-11-05T00:02:28.283Z,9.12
2018-11-05T00:05:33.732Z,9.08
2018-11-05T00:08:38.096Z,9.09
2018-11-05T00:11:43.312Z,9.05
2018-11-05T00:14:47.685Z,9.03
2018-11-05T00:17:51.991Z,8.96
2018-11-05T00:20:56.579Z,8.93
2018-11-05T00:24:00.847Z,8.84
2018-11-05T00:27:05.120Z,8.77
2018-11-05T00:30:11.596Z,8.64
2018-11-05T00:33:15.927Z,8.63
2018-11-05T00:36:20.304Z,8.42
2018-11-05T00:39:24.726Z,8.28
2018-11-05T00:42:29.189Z,8.38
2018-11-05T00:45:33.628Z,8.12
2018-11-05T00:48:37.948Z,8.02
2018-11-05T00:51:42.695Z,7.96
2018-11-05T00:54:47.099Z,7.93
2018-11-05T00:57:51.572Z,7.80
2018-11-05T01:00:56.213Z,7.82
2018-11-05T01:04:00.502Z,7.84
2018-11-05T01:07:04.848Z,7.86
2018-11-05T01:10:10.451Z,7.87
2018-11-05T01:13:15.751Z,7.74
2018-11-05T01:16:20.080Z,7.82
2018-11-05T01:19:26.280Z,7.84
2018-11-05T01:22:30.837Z,7.88
2018-11-05T01:25:35.557Z,7.82
2018-11-05T01:28:39.862Z,7.75
2018-11-05T01:31:44.449Z,7.77
2018-11-05T01:34:48.855Z,7.80
2018-11-05T01:37:53.346Z,7.81
2018-11-05T01:40:57.660Z,7.77
2018-11-05T01:44:02.283Z,7.82
2018-11-05T01:47:06.815Z,7.80
2018-11-05T01:50:13.384Z,7.65
2018-11-05T01:53:17.740Z,7.62
2018-11-05T01:56:22.124Z,7.56
2018-11-05T01:59:26.672Z,7.53
2018-11-05T02:02:31.244Z,7.48
2018-11-05T02:05:35.763Z,7.33
2018-11-05T02:08:46.608Z,7.31
2018-11-05T02:11:51.049Z,7.28
2018-11-05T02:14:56.102Z,7.27
2018-11-05T02:18:00.464Z,7.25
2018-11-05T02:21:04.985Z,7.23
2018-11-05T02:24:09.843Z,7.18
2018-11-05T02:27:14.315Z,7.08
2018-11-05T02:30:19.557Z,7.09
2018-11-05T02:33:24.334Z,7.23
2018-11-05T02:36:28.881Z,7.05
2018-11-05T02:39:33.199Z,7.19
2018-11-05T02:42:37.578Z,6.96
2018-11-05T02:45:42.092Z,7.01
2018-11-05T02:48:46.489Z,6.99
2018-11-05T02:51:50.992Z,6.76
2018-11-05T02:54:55.442Z,6.51
2018-11-05T02:57:59.817Z,6.46
2018-11-05T03:01:04.339Z,6.36
2018-11-05T03:04:08.641Z,6.47
2018-11-05T03:07:12.961Z,6.34
2018-11-05T03:10:17.440Z,6.27
2018-11-05T03:13:21.772Z,6.08
2018-11-05T03:16:26.198Z,6.25
2018-11-05T03:19:30.495Z,6.07
2018-11-05T03:22:34.808Z,6.07
2018-11-05T03:25:39.316Z,5.96
2018-11-05T03:28:43.638Z,6.07
2018-11-05T03:31:47.944Z,6.06
2018-11-05T03:34:52.572Z,5.98
2018-11-05T03:37:56.899Z,6.17
2018-11-05T03:41:01.231Z,6.00
2018-11-05T03:44:06.141Z,5.89
2018-11-05T03:47:10.507Z,6.15
2018-11-05T03:50:18.945Z,5.82
2018-11-05T03:53:23.272Z,5.82
2018-11-05T03:56:27.629Z,5.69
2018-11-05T03:59:31.996Z,5.82
2018-11-05T04:02:36.399Z,5.66
2018-11-05T04:05:40.705Z,5.64
2018-11-05T04:08:45.184Z,5.38
2018-11-05T04:11:49.549Z,5.36
2018-11-05T04:14:54.215Z,5.15
2018-11-05T04:17:58.589Z,5.08
2018-11-05T04:21:02.968Z,5.10
2018-11-05T04:24:07.519Z,5.42
2018-11-05T04:27:11.919Z,5.13
2018-11-05T04:30:16.673Z,5.11
2018-11-05T04:33:21.181Z,5.13
2018-11-05T04:36:25.505Z,5.07
2018-11-05T04:39:30.568Z,5.05
2018-11-05T04:42:34.892Z,4.96
2018-11-05T04:45:40.852Z,5.15
2018-11-05T04:48:45.401Z,5.19
2018-11-05T04:51:49.865Z,5.14
2018-11-05T04:54:54.968Z,5.19
2018-11-05T04:57:59.265Z,5.15
2018-11-05T05:01:03.686Z,5.14
2018-11-05T05:04:07.987Z,5.16
2018-11-05T05:07:12.844Z,5.11
2018-11-05T05:10:17.264Z,5.13
2018-11-05T05:13:21.796Z,5.00
2018-11-05T05:16:26.473Z,5.10
2018-11-05T05:19:30.938Z,5.17
2018-11-05T05:22:35.397Z,5.05
2018-11-05T05:25:40.548Z,5.16
2018-11-05T05:28:44.959Z,5.09
2018-11-05T05:31:49.641Z,5.10
2018-11-05T05:34:54.364Z,5.19
2018-11-05T05:37:58.831Z,5.12
2018-11-05T05:41:03.462Z,4.98
2018-11-05T05:44:07.659Z,4.98
2018-11-05T05:47:12.051Z,5.04
2018-11-05T05:50:18.236Z,5.09
2018-11-05T05:53:22.575Z,5.17
2018-11-05T05:56:27.048Z,5.16
2018-11-05T05:59:31.463Z,5.17
2018-11-05T06:02:36.249Z,5.08
2018-11-05T06:05:41.039Z,5.12
2018-11-05T06:08:45.646Z,5.14
2018-11-05T06:11:53.319Z,5.19
2018-11-05T06:14:57.620Z,5.20
2018-11-05T06:18:02.249Z,5.26
2018-11-05T06:21:06.880Z,5.27
2018-11-05T06:24:11.216Z,5.40
2018-11-05T06:27:15.564Z,5.53
2018-11-05T06:30:20.964Z,5.78
2018-11-05T06:33:25.548Z,5.84
2018-11-05T06:36:29.932Z,5.99
2018-11-05T06:39:34.405Z,6.08
2018-11-05T06:42:38.756Z,6.17
2018-11-05T06:45:43.114Z,6.28
2018-11-05T06:48:47.507Z,6.49
2018-11-05T06:51:51.915Z,6.68
2018-11-05T06:54:56.701Z,6.95
2018-11-05T06:58:01.140Z,7.31
2018-11-05T07:01:05.991Z,7.54
2018-11-05T07:04:10.320Z,6.90
2018-11-05T07:07:14.739Z,6.70
2018-11-05T07:10:19.861Z,6.78
2018-11-05T07:13:24.326Z,6.99
2018-11-05T07:16:28.816Z,7.08
2018-11-05T07:19:33.584Z,7.12
2018-11-05T07:22:37.879Z,7.15
2018-11-05T07:25:42.412Z,7.34
2018-11-05T07:28:46.805Z,7.48
2018-11-05T07:31:51.128Z,7.09
2018-11-05T07:34:55.578Z,7.15
2018-11-05T07:38:00.108Z,7.41
2018-11-05T07:41:04.471Z,7.31
2018-11-05T07:44:09.341Z,7.24
2018-11-05T07:47:13.673Z,7.24
2018-11-05T07:50:19.001Z,7.53
2018-11-05T07:53:23.669Z,7.81
2018-11-05T07:56:29.141Z,7.68
2018-11-05T07:59:33.800Z,7.57
2018-11-05T08:02:38.182Z,7.70
2018-11-05T08:05:42.509Z,7.92
2018-11-05T08:08:46.856Z,7.86
2018-11-05T08:11:51.172Z,7.78
2018-11-05T08:14:55.549Z,8.02
2018-11-05T08:18:00.667Z,8.09
2018-11-05T08:21:05.597Z,8.19
2018-11-05T08:24:09.918Z,8.37
2018-11-05T08:27:14.340Z,8.50
2018-11-05T08:30:24.737Z,8.99
2018-11-05T08:33:29.126Z,9.53
2018-11-05T08:36:33.499Z,9.87
2018-11-05T08:39:38.056Z,10.17
2018-11-05T08:42:42.913Z,9.97
2018-11-05T08:45:47.348Z,10.28
2018-11-05T08:48:52.672Z,10.47
2018-11-05T08:51:57.252Z,10.59
2018-11-05T08:55:01.742Z,10.97
2018-11-05T08:58:06.356Z,11.27
2018-11-05T09:01:16.828Z,11.51
2018-11-05T09:04:22.257Z,11.29
2018-11-05T09:07:26.686Z,11.73
2018-11-05T09:10:32.706Z,12.00
2018-11-05T09:13:36.808Z,12.31
2018-11-05T09:16:41.393Z,12.63
2018-11-05T09:19:46.224Z,12.85
2018-11-05T09:22:51.378Z,13.14
2018-11-05T09:25:55.691Z,13.13
2018-11-05T09:29:00.062Z,13.29
2018-11-05T09:32:04.384Z,13.65
2018-11-05T09:35:10.142Z,14.24
2018-11-05T09:38:14.458Z,14.81
2018-11-05T09:41:18.869Z,15.13
2018-11-05T09:44:23.248Z,15.43
2018-11-05T09:47:27.884Z,15.45
2018-11-05T09:50:32.283Z,15.37
2018-11-05T09:53:36.812Z,15.33
2018-11-05T09:56:41.403Z,15.28
2018-11-05T09:59:46.873Z,15.20
2018-11-05T10:02:56.425Z,15.08
2018-11-05T10:06:00.665Z,14.67
2018-11-05T10:09:07.945Z,14.31
2018-11-05T10:12:12.485Z,14.33
2018-11-05T10:15:17.996Z,14.49
2018-11-05T10:18:23.878Z,14.92
2018-11-05T10:21:28.212Z,15.11
2018-11-05T10:24:33.706Z,14.98
2018-11-05T10:27:38.028Z,15.23
2018-11-05T10:30:42.643Z,15.50
2018-11-05T10:33:50.644Z,15.64
2018-11-05T10:36:55.202Z,15.57
2018-11-05T10:39:59.571Z,15.15
2018-11-05T10:43:03.993Z,15.05
2018-11-05T10:46:08.658Z,14.96
2018-11-05T10:49:12.969Z,14.92
2018-11-05T10:52:17.648Z,15.06
2018-11-05T10:55:22.033Z,15.25
2018-11-05T10:58:26.411Z,15.47
2018-11-05T11:01:36.399Z,15.65
2018-11-05T11:04:41.663Z,15.90
2018-11-05T11:07:46.376Z,16.04
2018-11-05T11:10:51.393Z,16.22
2018-11-05T11:13:55.927Z,16.42
2018-11-05T11:17:00.397Z,16.70
2018-11-05T11:20:05.358Z,16.93
2018-11-05T11:23:10.092Z,17.32
2018-11-05T11:26:14.411Z,17.53
2018-11-05T11:29:18.905Z,17.55
2018-11-05T11:32:23.019Z,17.60
2018-11-05T11:38:57.519Z,17.86
2018-11-05T11:42:01.847Z,17.96
2018-11-05T11:45:07.053Z,17.91
2018-11-05T11:48:11.355Z,17.76
2018-11-05T11:51:15.664Z,17.62
2018-11-05T11:54:20.108Z,17.69
2018-11-05T11:57:24.424Z,17.77
2018-11-05T12:00:28.722Z,17.92
2018-11-05T12:03:33.161Z,18.13
2018-11-05T12:06:37.438Z,18.32
2018-11-05T12:09:41.774Z,18.41
2018-11-05T12:12:46.176Z,18.59
2018-11-05T12:15:50.610Z,18.70
2018-11-05T12:18:54.963Z,18.89
2018-11-05T12:21:59.395Z,19.10
2018-11-05T12:25:03.808Z,19.39
2018-11-05T12:28:08.017Z,19.77
2018-11-05T12:31:12.426Z,20.04
2018-11-05T12:34:16.726Z,20.20
2018-11-05T12:37:21.055Z,20.29
2018-11-05T12:40:25.440Z,20.33
2018-11-05T12:43:29.834Z,20.35
2018-11-05T12:46:34.199Z,20.25
2018-11-05T12:49:38.496Z,20.15
2018-11-05T12:52:43.838Z,20.00
2018-11-05T12:55:48.259Z,19.92
2018-11-05T12:58:52.578Z,19.80
2018-11-05T13:01:57.795Z,19.68
2018-11-05T13:05:02.145Z,19.68
2018-11-05T13:08:06.598Z,19.69
2018-11-05T13:11:10.977Z,19.68
2018-11-05T13:14:15.281Z,19.49
2018-11-05T13:17:19.768Z,19.65
2018-11-05T13:20:24.585Z,19.46
2018-11-05T13:23:36.425Z,19.36
2018-11-05T13:26:40.817Z,19.29
2018-11-05T13:29:45.186Z,19.16
2018-11-05T13:32:49.572Z,19.04
2018-11-05T13:35:53.964Z,19.02
2018-11-05T13:38:58.419Z,18.88
2018-11-05T13:42:02.800Z,19.00
2018-11-05T13:45:09.152Z,18.89
2018-11-05T13:48:13.516Z,18.80
2018-11-05T13:51:17.559Z,18.69
2018-11-05T13:54:22.038Z,18.65
2018-11-05T13:57:26.218Z,18.61
2018-11-05T14:00:30.525Z,18.56
2018-11-05T14:03:34.833Z,18.61
2018-11-05T14:06:39.279Z,18.60
2018-11-05T14:09:43.584Z,18.59
2018-11-05T14:12:48.315Z,18.67
2018-11-05T14:15:52.673Z,18.52
2018-11-05T14:18:57.695Z,18.61
2018-11-05T14:22:02.366Z,18.63
2018-11-05T14:25:09.333Z,18.71
2018-11-05T14:28:13.976Z,18.64
2018-11-05T14:31:18.100Z,18.49
2018-11-05T14:34:22.391Z,18.44
2018-11-05T14:37:26.771Z,18.27
2018-11-05T14:40:37.854Z,18.18
2018-11-05T14:43:42.320Z,18.01
2018-11-05T14:46:46.524Z,17.77
2018-11-05T14:49:50.828Z,17.67
2018-11-05T14:52:55.264Z,17.38
2018-11-05T14:56:00.556Z,17.16
2018-11-05T14:59:05.305Z,16.93
2018-11-05T15:02:15.297Z,16.74
2018-11-05T15:05:20.340Z,16.59
2018-11-05T15:08:24.719Z,16.50
2018-11-05T15:11:29.004Z,16.47
2018-11-05T15:14:33.295Z,16.41
2018-11-05T15:17:37.834Z,16.36
2018-11-05T15:20:42.247Z,16.42
2018-11-05T15:23:46.520Z,16.28
2018-11-05T15:26:51.665Z,16.15
2018-11-05T15:29:56.248Z,16.01
2018-11-05T15:33:00.628Z,16.08
2018-11-05T15:36:06.321Z,16.03
2018-11-05T15:39:10.855Z,15.67
2018-11-05T15:42:15.317Z,15.52
2018-11-05T15:45:20.779Z,15.46
2018-11-05T15:48:25.176Z,15.65
2018-11-05T15:51:29.764Z,15.46
2018-11-05T15:54:34.134Z,15.06
2018-11-05T15:57:39.103Z,14.58
2018-11-05T16:00:43.488Z,14.14
2018-11-05T16:03:47.820Z,13.85
2018-11-05T16:06:52.161Z,13.78
2018-11-05T16:09:56.604Z,13.79
2018-11-05T16:13:01.003Z,13.75
2018-11-05T16:16:05.556Z,13.83
2018-11-05T16:19:09.869Z,14.03
2018-11-05T16:22:14.241Z,13.90
2018-11-05T16:25:18.580Z,13.81
2018-11-05T16:28:22.987Z,13.66
2018-11-05T16:31:27.538Z,13.53
2018-11-05T16:34:32.041Z,13.44
2018-11-05T16:37:36.616Z,13.36
2018-11-05T16:40:41.037Z,13.22
2018-11-05T16:43:45.797Z,13.20
2018-11-05T16:46:50.202Z,13.14
2018-11-05T16:49:54.710Z,13.02
2018-11-05T16:52:59.091Z,13.00
2018-11-05T16:56:03.408Z,13.06
2018-11-05T16:59:07.983Z,13.16
2018-11-05T17:02:15.034Z,13.17
2018-11-05T17:05:19.014Z,13.09
2018-11-05T17:08:23.813Z,13.07
2018-11-05T17:11:28.245Z,13.17
2018-11-05T17:14:32.784Z,13.22
2018-11-05T17:17:37.688Z,13.16
2018-11-05T17:20:42.078Z,13.18
2018-11-05T17:23:46.573Z,13.23
2018-11-05T17:26:51.072Z,13.26
2018-11-05T17:29:55.624Z,13.16
2018-11-05T17:33:00.015Z,13.24
2018-11-05T17:36:04.383Z,13.26
2018-11-05T17:39:11.644Z,13.15
2018-11-05T17:42:16.077Z,13.23
2018-11-05T17:45:20.961Z,13.08
2018-11-05T17:48:25.342Z,12.86
2018-11-05T17:51:29.787Z,12.70
2018-11-05T17:54:34.180Z,12.53
2018-11-05T17:57:38.628Z,12.48
2018-11-05T18:00:43.065Z,12.48
2018-11-05T18:03:47.438Z,12.36
2018-11-05T18:06:51.732Z,12.27
2018-11-05T18:09:56.012Z,11.98
2018-11-05T18:13:00.319Z,11.67
2018-11-05T18:16:04.806Z,11.43
2018-11-05T18:19:09.233Z,11.22
2018-11-05T18:22:13.432Z,11.08
2018-11-05T18:25:18.905Z,10.86
2018-11-05T18:28:23.208Z,10.75
2018-11-05T18:31:27.818Z,10.74
2018-11-05T18:34:32.204Z,10.68
2018-11-05T18:37:36.719Z,10.67
2018-11-05T18:40:41.165Z,10.58
2018-11-05T18:43:45.616Z,10.55
2018-11-05T18:46:50.000Z,10.69
2018-11-05T18:49:54.426Z,10.56
2018-11-05T18:52:58.706Z,10.45
2018-11-05T18:56:03.154Z,10.44
2018-11-05T18:59:07.866Z,10.35
2018-11-05T19:02:16.387Z,10.38
2018-11-05T19:05:21.568Z,10.27
2018-11-05T19:08:25.941Z,10.25
2018-11-05T19:11:30.264Z,10.19
2018-11-05T19:14:34.604Z,10.16
2018-11-05T19:17:38.924Z,10.07
2018-11-05T19:20:43.259Z,10.25
2018-11-05T19:24:18.835Z,10.29
2018-11-05T19:27:23.137Z,10.35
2018-11-05T19:30:28.244Z,10.27
2018-11-05T19:33:32.793Z,10.33
2018-11-05T19:36:37.149Z,10.45
2018-11-05T19:39:41.546Z,10.47
2018-11-05T19:42:46.628Z,10.64
2018-11-05T19:45:50.835Z,10.79
2018-11-05T19:48:55.212Z,10.92
2018-11-05T19:51:59.560Z,10.96
2018-11-05T19:55:03.950Z,11.06
2018-11-05T19:58:08.431Z,11.20
2018-11-05T20:01:12.857Z,11.37
2018-11-05T20:04:17.200Z,11.42
2018-11-05T20:07:21.589Z,11.59
2018-11-05T20:10:26.340Z,11.65
2018-11-05T20:13:30.784Z,11.58
2018-11-05T20:16:35.383Z,11.49
2018-11-05T20:19:39.740Z,11.63
2018-11-05T20:22:44.277Z,11.58
2018-11-05T20:25:48.655Z,11.53
2018-11-05T20:28:53.041Z,11.55
2018-11-05T20:31:57.527Z,11.48
2018-11-05T20:35:01.598Z,11.49
2018-11-05T20:38:06.237Z,11.45
2018-11-05T20:41:10.772Z,11.43
2018-11-05T20:44:15.210Z,11.41
2018-11-05T20:47:19.616Z,11.26
2018-11-05T20:50:24.024Z,11.08
2018-11-05T20:53:28.491Z,10.82
2018-11-05T20:56:32.780Z,10.67
2018-11-05T20:59:37.409Z,10.67
2018-11-05T21:02:42.557Z,10.66
2018-11-05T21:05:46.970Z,10.42
2018-11-05T21:08:51.431Z,10.21
2018-11-05T21:11:56.016Z,10.17
2018-11-05T21:15:00.368Z,10.08
2018-11-05T21:18:05.090Z,9.97
2018-11-05T21:21:10.638Z,9.88
2018-11-05T21:24:15.034Z,9.82
2018-11-05T21:27:19.359Z,9.86
2018-11-05T21:30:24.088Z,9.74
2018-11-05T21:33:28.839Z,10.04
2018-11-05T21:36:33.247Z,9.83
2018-11-05T21:39:37.542Z,9.61
2018-11-05T21:42:42.122Z,9.41
2018-11-05T21:45:46.472Z,9.25
2018-11-05T21:48:50.740Z,9.08
2018-11-05T21:51:55.281Z,9.04
2018-11-05T21:54:59.678Z,9.05
2018-11-05T21:58:04.008Z,9.04
2018-11-05T22:01:08.312Z,8.93
2018-11-05T22:04:12.635Z,8.87
2018-11-05T22:07:17.194Z,8.86
2018-11-05T22:10:21.531Z,8.81
2018-11-05T22:13:26.274Z,8.77
2018-11-05T22:16:30.670Z,8.74
2018-11-05T22:19:34.973Z,8.79
2018-11-05T22:22:39.628Z,8.74
2018-11-05T22:25:43.918Z,8.67
2018-11-05T22:28:48.232Z,8.68
2018-11-05T22:31:52.542Z,8.68
2018-11-05T22:34:57.028Z,8.80
2018-11-05T22:38:01.379Z,8.77
2018-11-05T22:41:06.191Z,8.67
2018-11-05T22:44:10.472Z,8.58
2018-11-05T22:47:14.827Z,8.52
2018-11-05T22:50:19.113Z,8.51
2018-11-05T22:53:23.565Z,8.57
2018-11-05T22:56:27.844Z,8.49
2018-11-05T22:59:32.140Z,8.47
2018-11-05T23:02:36.449Z,8.57
2018-11-05T23:05:40.971Z,8.36
2018-11-05T23:08:45.308Z,8.38
2018-11-05T23:11:49.701Z,8.25
2018-11-05T23:14:54.040Z,8.26
2018-11-05T23:17:58.364Z,8.25
2018-11-05T23:21:02.669Z,8.24
2018-11-05T23:24:07.008Z,8.25
2018-11-05T23:27:11.306Z,8.44
2018-11-05T23:30:15.608Z,8.27
2018-11-05T23:33:19.955Z,8.18
2018-11-05T23:36:24.209Z,8.11
2018-11-05T23:39:28.762Z,8.04
2018-11-05T23:42:33.157Z,8.02
2018-11-05T23:45:37.437Z,7.93
2018-11-05T23:48:41.772Z,8.03
2018-11-05T23:51:46.125Z,7.89
2018-11-05T23:54:50.388Z,7.84
2018-11-05T23:57:54.701Z,7.80
